Time;durP1;ratioP1;P1;durP2;ratioP2;P2;SDS_P1;SDS_P2;PMS_P1;PMS_P2;Temp;Humidity;BMP_temperature;BMP_pressure;BME280_temperature;BME280_humidity;BME280_pressure;Samples;Min_cycle;Max_cycle;Signal;HPM_P1;HPM_P2
2024/04/14 00:02:11;;;;;;;0.75;0.70;;;16.40;65.90;;;;;;5357145;26;20432;-65
2024/04/14 00:04:37;;;;;;;1.88;0.80;;;16.40;66.00;;;;;;5360815;26;20418;-65
2024/04/14 00:07:03;;;;;;;1.55;0.80;;;16.30;66.00;;;;;;5367147;26;20048;-64
2024/04/14 00:09:28;;;;;;;1.55;0.80;;;16.30;66.00;;;;;;5359563;26;19993;-66
2024/04/14 00:11:54;;;;;;;1.58;0.77;;;16.30;66.00;;;;;;5364973;26;20004;-63
2024/04/14 00:14:19;;;;;;;2.63;0.77;;;16.40;66.10;;;;;;5357769;26;20055;-66
2024/04/14 00:16:45;;;;;;;0.95;0.60;;;16.30;66.20;;;;;;5364208;26;20012;-66
2024/04/14 00:19:10;;;;;;;2.13;0.68;;;16.20;66.30;;;;;;5360826;26;20008;-65
2024/04/14 00:21:36;;;;;;;1.15;0.70;;;16.20;66.30;;;;;;5356404;26;20499;-65
2024/04/14 00:24:01;;;;;;;1.92;0.80;;;16.20;66.40;;;;;;5350252;26;20084;-66
2024/04/14 00:26:27;;;;;;;0.80;0.60;;;16.20;66.50;;;;;;5369136;26;20004;-65
2024/04/14 00:28:53;;;;;;;1.13;0.77;;;16.20;66.50;;;;;;5365260;26;19996;-66
2024/04/14 00:31:18;;;;;;;1.83;0.70;;;16.20;66.50;;;;;;5372985;26;20097;-65
2024/04/14 00:33:44;;;;;;;3.20;0.80;;;16.20;66.60;;;;;;5365498;26;20830;-66
2024/04/14 00:36:09;;;;;;;1.50;0.90;;;16.20;66.60;;;;;;5364449;26;20003;-66
2024/04/14 00:38:35;;;;;;;1.70;0.70;;;16.20;66.60;;;;;;5364169;26;20502;-65
2024/04/14 00:41:01;;;;;;;2.22;0.70;;;16.20;66.60;;;;;;5358929;26;20017;-66
2024/04/14 00:43:27;;;;;;;0.93;0.60;;;16.10;66.70;;;;;;5367290;26;20015;-65
2024/04/14 00:45:53;;;;;;;1.45;0.70;;;16.10;66.80;;;;;;5360174;26;20001;-66
2024/04/14 00:48:19;;;;;;;1.95;0.80;;;16.10;66.90;;;;;;5359054;26;20047;-66
2024/04/14 00:50:46;;;;;;;2.60;0.77;;;16.10;67.00;;;;;;5364448;26;20039;-65
2024/04/14 00:53:12;;;;;;;1.92;0.70;;;16.00;67.10;;;;;;5360049;26;20037;-65
2024/04/14 00:55:40;;;;;;;1.42;0.77;;;16.00;67.20;;;;;;5366097;26;20032;-65
2024/04/14 00:58:06;;;;;;;1.75;0.90;;;16.00;67.20;;;;;;5367849;26;20000;-65
2024/04/14 01:00:33;;;;;;;3.83;0.90;;;16.00;67.20;;;;;;5357385;26;20047;-66
2024/04/14 01:02:59;;;;;;;2.05;0.93;;;16.00;67.20;;;;;;5360779;26;20630;-65
2024/04/14 01:05:25;;;;;;;1.77;0.80;;;16.00;67.30;;;;;;5358732;26;20526;-64
2024/04/14 01:07:52;;;;;;;1.42;0.80;;;16.00;67.40;;;;;;5359708;26;20004;-64
2024/04/14 01:10:18;;;;;;;2.42;0.77;;;15.90;67.40;;;;;;5354693;26;20008;-64
2024/04/14 01:12:44;;;;;;;1.73;0.90;;;15.90;67.50;;;;;;5358987;26;20442;-65
2024/04/14 01:15:10;;;;;;;1.52;0.85;;;15.90;67.60;;;;;;5365538;26;20022;-65
2024/04/14 01:17:35;;;;;;;1.73;0.93;;;15.80;67.60;;;;;;5358191;26;20339;-65
2024/04/14 01:20:01;;;;;;;2.50;0.90;;;15.80;67.70;;;;;;5365951;26;19992;-65
2024/04/14 01:22:27;;;;;;;3.83;0.90;;;15.80;67.90;;;;;;5362152;26;20003;-65
2024/04/14 01:25:06;;;;;;;2.60;0.90;;;15.80;67.90;;;;;;5354756;26;20024;-65
2024/04/14 01:27:36;;;;;;;1.70;1.00;;;15.70;68.10;;;;;;5370129;26;19997;-63
2024/04/14 01:30:05;;;;;;;2.53;1.10;;;15.70;68.10;;;;;;5358266;26;20015;-64
2024/04/14 01:32:35;;;;;;;1.60;0.73;;;15.70;68.20;;;;;;5354160;26;20001;-65
2024/04/14 01:35:01;;;;;;;2.70;0.90;;;15.60;68.30;;;;;;5363104;26;20009;-65
2024/04/14 01:37:27;;;;;;;2.55;0.80;;;15.60;68.50;;;;;;5352465;26;20343;-66
2024/04/14 01:39:52;;;;;;;3.22;1.35;;;15.60;68.60;;;;;;5358800;26;20000;-65
2024/04/14 01:42:18;;;;;;;2.33;1.00;;;15.60;68.60;;;;;;5356745;26;20008;-64
2024/04/14 01:44:43;;;;;;;1.27;0.80;;;15.60;68.60;;;;;;5356447;26;20000;-64
2024/04/14 01:47:09;;;;;;;2.70;0.80;;;15.60;68.70;;;;;;5356887;26;20456;-65
2024/04/14 01:49:35;;;;;;;2.30;0.90;;;15.60;68.70;;;;;;5372563;26;20497;-65
2024/04/14 01:52:01;;;;;;;1.30;0.80;;;15.70;68.80;;;;;;5362162;26;20000;-65
2024/04/14 01:54:27;;;;;;;2.10;1.00;;;15.60;68.80;;;;;;5349074;26;20128;-64
2024/04/14 01:56:52;;;;;;;1.55;0.88;;;15.70;68.90;;;;;;5367815;26;20467;-65
2024/04/14 01:59:18;;;;;;;1.83;0.80;;;15.70;69.00;;;;;;5350192;26;20005;-65
2024/04/14 02:01:44;;;;;;;1.85;0.80;;;15.70;68.90;;;;;;5371964;26;20000;-65
2024/04/14 02:04:09;;;;;;;3.03;0.82;;;15.70;69.10;;;;;;5365192;26;20008;-64
2024/04/14 02:06:35;;;;;;;4.03;0.90;;;15.60;69.10;;;;;;5360902;26;20005;-65
2024/04/14 02:09:00;;;;;;;1.92;0.80;;;15.60;69.30;;;;;;5365004;26;20074;-65
2024/04/14 02:11:26;;;;;;;1.88;0.90;;;15.50;69.30;;;;;;5352366;26;20024;-64
2024/04/14 02:13:51;;;;;;;2.90;0.98;;;15.60;69.40;;;;;;5357158;26;20398;-64
2024/04/14 02:16:17;;;;;;;3.20;0.90;;;15.50;69.50;;;;;;5360413;26;20014;-65
2024/04/14 02:18:42;;;;;;;1.00;0.80;;;15.50;69.50;;;;;;5359639;26;20000;-65
2024/04/14 02:21:08;;;;;;;1.77;0.88;;;15.50;69.60;;;;;;5356703;26;20009;-65
2024/04/14 02:23:33;;;;;;;3.75;1.02;;;15.40;69.70;;;;;;5369075;26;20009;-63
2024/04/14 02:26:00;;;;;;;1.33;0.68;;;15.30;69.80;;;;;;5376785;26;20000;-64
2024/04/14 02:28:26;;;;;;;2.50;0.90;;;15.30;69.90;;;;;;5355794;26;20007;-65
2024/04/14 02:30:52;;;;;;;1.60;0.80;;;15.30;69.90;;;;;;5360845;26;20034;-66
2024/04/14 02:33:17;;;;;;;1.48;0.70;;;15.20;69.80;;;;;;5349795;26;20005;-64
2024/04/14 02:35:55;;;;;;;1.27;0.60;;;15.20;69.80;;;;;;5349654;26;20001;-65
2024/04/14 02:38:21;;;;;;;1.33;1.05;;;15.20;69.90;;;;;;5350706;26;20019;-66
2024/04/14 02:41:00;;;;;;;1.95;1.02;;;15.20;69.90;;;;;;5362154;26;21782;-64
2024/04/14 02:43:26;;;;;;;1.90;0.70;;;15.10;69.80;;;;;;5358856;26;20011;-65
2024/04/14 02:45:53;;;;;;;2.72;0.80;;;15.00;69.70;;;;;;5364587;26;20397;-65
2024/04/14 02:48:18;;;;;;;1.70;0.70;;;14.90;69.80;;;;;;5354756;26;20028;-66
2024/04/14 02:50:44;;;;;;;1.42;0.70;;;14.90;69.90;;;;;;5358051;26;20062;-65
2024/04/14 02:53:10;;;;;;;3.33;0.80;;;14.80;69.90;;;;;;5370852;26;20331;-65
2024/04/14 02:55:36;;;;;;;1.15;0.70;;;14.70;69.80;;;;;;5370319;26;20043;-66
2024/04/14 02:58:02;;;;;;;1.58;0.60;;;14.70;69.80;;;;;;5353696;26;20000;-66
2024/04/14 03:00:28;;;;;;;0.77;0.50;;;14.70;69.80;;;;;;5361238;26;20013;-66
2024/04/14 03:02:53;;;;;;;2.25;0.70;;;14.60;69.80;;;;;;5357831;26;20020;-66
2024/04/14 03:05:19;;;;;;;1.50;0.65;;;14.60;69.70;;;;;;5352498;26;20004;-66
2024/04/14 03:07:45;;;;;;;2.67;0.60;;;14.50;69.80;;;;;;5365962;26;20008;-66
2024/04/14 03:10:10;;;;;;;1.63;0.60;;;14.40;69.80;;;;;;5362171;26;20004;-65
2024/04/14 03:12:36;;;;;;;2.40;0.88;;;14.30;69.90;;;;;;5360901;26;20075;-65
2024/04/14 03:15:01;;;;;;;1.60;0.90;;;14.30;70.00;;;;;;5361169;26;20004;-66
2024/04/14 03:17:27;;;;;;;3.50;1.00;;;14.20;70.10;;;;;;5354795;26;19993;-66
2024/04/14 03:19:53;;;;;;;2.65;0.73;;;14.10;70.10;;;;;;5359612;26;20004;-66
2024/04/14 03:22:19;;;;;;;0.85;0.55;;;14.10;70.10;;;;;;5375874;26;19996;-66
2024/04/14 03:24:44;;;;;;;0.73;0.40;;;14.10;70.10;;;;;;5370785;26;20016;-66
2024/04/14 03:27:10;;;;;;;1.60;0.60;;;14.10;70.10;;;;;;5362505;26;20042;-66
2024/04/14 03:29:36;;;;;;;1.17;0.50;;;14.00;70.10;;;;;;5363234;26;20341;-66
2024/04/14 03:32:01;;;;;;;1.40;0.60;;;14.00;70.00;;;;;;5360704;26;20139;-65
2024/04/14 03:34:27;;;;;;;0.93;0.60;;;14.10;70.10;;;;;;5369162;26;20210;-67
2024/04/14 03:36:52;;;;;;;1.58;0.50;;;14.10;70.00;;;;;;5368821;26;19993;-66
2024/04/14 03:39:18;;;;;;;2.20;0.77;;;14.00;70.00;;;;;;5367589;26;19996;-66
2024/04/14 03:41:43;;;;;;;2.03;0.70;;;14.00;70.00;;;;;;5359846;26;20031;-66
2024/04/14 03:44:09;;;;;;;3.25;0.65;;;14.00;70.10;;;;;;5371537;26;20012;-66
2024/04/14 03:46:34;;;;;;;2.42;0.60;;;14.00;70.10;;;;;;5355806;26;19997;-66
2024/04/14 03:49:00;;;;;;;1.35;0.55;;;14.00;70.00;;;;;;5367481;26;20012;-65
2024/04/14 03:51:25;;;;;;;1.73;0.50;;;14.00;70.00;;;;;;5355015;26;20019;-65
2024/04/14 03:53:51;;;;;;;2.60;0.55;;;14.00;70.00;;;;;;5357449;26;20675;-66
2024/04/14 03:56:17;;;;;;;0.85;0.43;;;14.00;69.90;;;;;;5364399;26;20447;-65
2024/04/14 03:58:43;;;;;;;1.33;0.43;;;14.00;70.00;;;;;;5366943;26;20490;-65
2024/04/14 04:01:08;;;;;;;1.73;0.43;;;14.00;70.00;;;;;;5362268;26;19997;-67
2024/04/14 04:03:34;;;;;;;1.85;0.55;;;14.00;70.00;;;;;;5365654;26;19992;-66
2024/04/14 04:06:00;;;;;;;1.95;0.50;;;13.90;70.10;;;;;;5367945;26;20015;-67
2024/04/14 04:08:25;;;;;;;1.35;0.40;;;13.90;70.10;;;;;;5370216;26;20418;-67
2024/04/14 04:11:17;;;;;;;1.50;0.50;;;13.90;70.10;;;;;;5364039;26;20011;-67
2024/04/14 04:13:43;;;;;;;1.85;0.70;;;13.90;70.10;;;;;;5360759;26;19997;-66
2024/04/14 04:16:09;;;;;;;1.48;0.50;;;13.90;70.20;;;;;;5351422;26;20066;-66
2024/04/14 04:18:35;;;;;;;1.30;0.40;;;13.80;70.10;;;;;;5351238;26;20070;-65
2024/04/14 04:21:07;;;;;;;1.98;0.50;;;13.80;70.20;;;;;;5353629;26;20001;-65
2024/04/14 04:23:33;;;;;;;0.93;0.50;;;13.80;70.10;;;;;;5361488;26;20008;-66
2024/04/14 04:26:00;;;;;;;3.25;0.60;;;13.80;70.20;;;;;;5364300;26;20000;-65
2024/04/14 04:28:27;;;;;;;1.70;0.60;;;13.80;70.30;;;;;;5363237;26;20000;-66
2024/04/14 04:30:53;;;;;;;1.77;0.43;;;13.70;70.90;;;;;;5348672;26;19992;-66
2024/04/14 04:33:19;;;;;;;0.68;0.40;;;13.70;70.30;;;;;;5359617;26;20007;-65
2024/04/14 04:36:13;;;;;;;1.08;0.40;;;13.70;70.30;;;;;;5365851;26;20004;-66
2024/04/14 04:38:40;;;;;;;1.40;0.52;;;13.70;70.40;;;;;;5359999;26;20019;-65
2024/04/14 04:41:07;;;;;;;1.10;0.50;;;13.60;70.50;;;;;;5360408;26;20033;-66
2024/04/14 04:43:32;;;;;;;2.60;0.57;;;13.60;70.50;;;;;;5360615;26;20016;-65
2024/04/14 04:45:58;;;;;;;0.75;0.40;;;13.50;70.60;;;;;;5356112;26;20004;-64
2024/04/14 04:48:24;;;;;;;0.80;0.50;;;13.50;70.60;;;;;;5361347;26;20015;-65
2024/04/14 04:50:50;;;;;;;0.73;0.40;;;13.50;70.60;;;;;;5359638;26;19997;-66
2024/04/14 04:53:16;;;;;;;2.17;0.50;;;13.50;70.70;;;;;;5359338;26;20004;-67
2024/04/14 04:55:44;;;;;;;1.58;0.60;;;13.50;70.80;;;;;;5352553;26;20033;-66
2024/04/14 04:58:10;;;;;;;2.03;0.50;;;13.50;70.80;;;;;;5356332;26;20800;-66
2024/04/14 05:00:35;;;;;;;1.40;0.60;;;13.50;70.80;;;;;;5360618;26;20075;-66
2024/04/14 05:03:01;;;;;;;0.80;0.50;;;13.50;70.80;;;;;;5364700;26;20335;-66
2024/04/14 05:05:26;;;;;;;1.08;0.40;;;13.50;70.80;;;;;;5360208;26;20450;-67
2024/04/14 05:07:52;;;;;;;0.77;0.40;;;13.50;70.80;;;;;;5362559;26;20006;-65
2024/04/14 05:10:17;;;;;;;1.33;0.40;;;13.50;70.70;;;;;;5361453;26;20343;-66
2024/04/14 05:12:43;;;;;;;1.25;0.40;;;13.60;70.60;;;;;;5348224;26;20038;-65
2024/04/14 05:15:08;;;;;;;1.42;0.57;;;13.60;70.60;;;;;;5354697;26;20456;-66
2024/04/14 05:17:34;;;;;;;1.85;0.50;;;13.60;70.50;;;;;;5367304;26;20385;-65
2024/04/14 05:19:59;;;;;;;1.52;0.70;;;13.60;70.50;;;;;;5362021;26;20600;-66
2024/04/14 05:22:25;;;;;;;1.42;0.73;;;13.60;70.60;;;;;;5360117;26;20016;-65
2024/04/14 05:24:50;;;;;;;4.50;0.50;;;13.60;70.50;;;;;;5358890;26;19993;-66
2024/04/14 05:27:16;;;;;;;1.50;0.30;;;13.60;70.50;;;;;;5361576;26;19997;-65
2024/04/14 05:29:48;;;;;;;1.55;0.43;;;13.60;70.50;;;;;;5364360;26;19992;-65
2024/04/14 05:32:15;;;;;;;1.73;0.55;;;13.60;70.50;;;;;;5351435;26;20015;-65
2024/04/14 05:34:41;;;;;;;1.58;0.47;;;13.60;70.50;;;;;;5358114;26;20050;-64
2024/04/14 05:37:07;;;;;;;2.33;0.68;;;13.70;70.50;;;;;;5349643;26;20019;-65
2024/04/14 05:39:34;;;;;;;3.08;0.50;;;13.70;70.50;;;;;;5350348;26;20013;-65
2024/04/14 05:41:59;;;;;;;1.15;0.55;;;13.60;70.50;;;;;;5354963;26;20000;-65
2024/04/14 05:44:25;;;;;;;1.40;0.60;;;13.60;70.50;;;;;;5364607;26;20351;-65
2024/04/14 05:46:50;;;;;;;0.68;0.50;;;13.70;70.60;;;;;;5359693;26;20019;-65
2024/04/14 05:49:20;;;;;;;1.35;0.50;;;13.70;70.60;;;;;;5356261;26;20013;-66
2024/04/14 05:51:48;;;;;;;1.15;0.50;;;13.70;70.50;;;;;;5351556;26;20001;-65
2024/04/14 05:54:13;;;;;;;1.75;0.50;;;13.80;70.40;;;;;;5350630;26;21722;-64
2024/04/14 05:56:39;;;;;;;0.77;0.30;;;13.80;70.40;;;;;;5351601;26;19997;-65
2024/04/14 05:59:04;;;;;;;1.27;0.60;;;13.80;70.30;;;;;;5351310;26;20008;-66
2024/04/14 06:01:30;;;;;;;1.88;0.40;;;13.80;70.30;;;;;;5357386;26;20000;-65
2024/04/14 06:03:55;;;;;;;2.47;0.80;;;13.80;70.30;;;;;;5352686;26;20020;-65
2024/04/14 06:06:21;;;;;;;0.50;0.40;;;13.80;70.30;;;;;;5358611;26;20000;-66
2024/04/14 06:08:47;;;;;;;0.95;0.40;;;13.80;70.20;;;;;;5363100;26;20016;-64
2024/04/14 06:11:12;;;;;;;2.25;0.60;;;13.80;70.10;;;;;;5368485;26;20613;-65
2024/04/14 06:13:38;;;;;;;1.02;0.57;;;13.90;70.10;;;;;;5363544;26;20458;-66
2024/04/14 06:16:04;;;;;;;0.70;0.50;;;14.00;69.90;;;;;;5354903;26;20482;-65
2024/04/14 06:18:29;;;;;;;2.53;0.50;;;14.10;69.70;;;;;;5369179;26;20571;-64
2024/04/14 06:20:55;;;;;;;0.75;0.40;;;14.20;69.50;;;;;;5372443;26;20380;-65
2024/04/14 06:23:20;;;;;;;2.05;0.45;;;14.20;69.30;;;;;;5362400;26;20405;-65
2024/04/14 06:25:46;;;;;;;1.27;0.57;;;14.30;69.10;;;;;;5365030;26;20455;-66
2024/04/14 06:28:12;;;;;;;1.60;0.50;;;14.40;69.00;;;;;;5359024;26;20008;-65
2024/04/14 06:30:37;;;;;;;1.58;0.45;;;14.30;68.90;;;;;;5370175;26;20085;-65
2024/04/14 06:33:03;;;;;;;1.27;0.50;;;14.30;69.00;;;;;;5360208;26;20040;-64
2024/04/14 06:35:29;;;;;;;1.38;0.50;;;14.30;69.00;;;;;;5373363;26;20000;-66
2024/04/14 06:37:55;;;;;;;1.10;0.35;;;14.30;69.00;;;;;;5358265;26;20010;-66
2024/04/14 06:40:20;;;;;;;2.10;0.50;;;14.40;68.90;;;;;;5356083;26;20001;-65
2024/04/14 06:42:46;;;;;;;1.63;0.60;;;14.40;68.90;;;;;;5359868;26;20012;-66
2024/04/14 06:45:12;;;;;;;2.00;0.70;;;14.50;68.80;;;;;;5363924;26;19996;-65
2024/04/14 06:47:37;;;;;;;0.80;0.40;;;14.50;68.70;;;;;;5372085;26;20007;-66
2024/04/14 06:50:03;;;;;;;0.80;0.40;;;14.60;68.60;;;;;;5374557;26;19996;-66
2024/04/14 06:52:28;;;;;;;0.77;0.40;;;14.70;68.50;;;;;;5360492;26;19997;-67
2024/04/14 06:54:54;;;;;;;2.00;0.63;;;14.80;68.50;;;;;;5368028;26;20520;-64
2024/04/14 06:57:19;;;;;;;1.63;0.47;;;14.80;68.40;;;;;;5365218;26;20460;-66
2024/04/14 06:59:45;;;;;;;2.92;0.70;;;14.80;68.20;;;;;;5362235;26;20004;-67
2024/04/14 07:02:11;;;;;;;2.20;1.00;;;14.80;68.30;;;;;;5358830;26;20373;-67
2024/04/14 07:04:36;;;;;;;2.17;0.43;;;14.90;69.00;;;;;;5363770;26;20455;-65
2024/04/14 07:07:02;;;;;;;2.45;0.60;;;14.80;68.40;;;;;;5348746;26;20016;-65
2024/04/14 07:09:27;;;;;;;1.55;0.70;;;14.90;68.50;;;;;;5361617;26;20000;-66
2024/04/14 07:11:53;;;;;;;2.40;0.57;;;14.90;68.30;;;;;;5384359;26;20287;-64
2024/04/14 07:14:19;;;;;;;1.73;0.60;;;14.90;68.30;;;;;;5359261;26;19996;-65
2024/04/14 07:16:45;;;;;;;2.13;0.52;;;14.80;68.30;;;;;;5360250;26;20014;-66
2024/04/14 07:19:12;;;;;;;2.55;0.50;;;14.80;68.40;;;;;;5366621;26;20454;-65
2024/04/14 07:21:39;;;;;;;2.83;0.98;;;14.90;68.40;;;;;;5357386;26;20025;-65
2024/04/14 07:24:08;;;;;;;2.35;0.60;;;14.90;68.40;;;;;;5362179;26;20009;-64
2024/04/14 07:26:33;;;;;;;1.35;0.50;;;14.90;68.30;;;;;;5360481;26;20013;-66
2024/04/14 07:28:59;;;;;;;2.15;0.60;;;14.90;68.30;;;;;;5362123;26;20015;-65
2024/04/14 07:31:25;;;;;;;2.50;0.73;;;15.10;68.20;;;;;;5361975;26;19996;-64
2024/04/14 07:34:00;;;;;;;1.25;0.60;;;15.10;68.00;;;;;;5363315;26;20048;-66
2024/04/14 07:36:26;;;;;;;1.27;0.50;;;15.20;67.90;;;;;;5363027;26;20077;-66
2024/04/14 07:38:52;;;;;;;1.70;0.50;;;15.20;67.90;;;;;;5365948;26;20008;-66
2024/04/14 07:41:19;;;;;;;3.20;0.70;;;15.30;67.90;;;;;;5357505;26;20033;-64
2024/04/14 07:43:46;;;;;;;5.82;0.85;;;15.40;67.60;;;;;;5354293;26;20011;-65
2024/04/14 07:46:11;;;;;;;1.65;0.73;;;15.50;67.30;;;;;;5358742;26;20633;-66
2024/04/14 07:48:37;;;;;;;2.50;0.70;;;15.70;67.00;;;;;;5357085;26;20009;-66
2024/04/14 07:51:03;;;;;;;3.38;1.10;;;15.70;66.60;;;;;;5362013;26;20078;-66
2024/04/14 07:53:29;;;;;;;2.85;0.60;;;15.80;66.30;;;;;;5356053;26;20011;-66
2024/04/14 07:55:55;;;;;;;2.00;0.60;;;15.80;66.30;;;;;;5370501;26;20004;-65
2024/04/14 07:58:21;;;;;;;0.80;0.40;;;16.00;65.90;;;;;;5361443;26;20055;-66
2024/04/14 08:00:47;;;;;;;1.08;0.50;;;16.00;65.70;;;;;;5369543;26;20095;-65
2024/04/14 08:03:13;;;;;;;3.40;0.80;;;16.20;65.40;;;;;;5356485;26;20447;-67
2024/04/14 08:05:38;;;;;;;3.17;0.70;;;16.20;65.00;;;;;;5358963;26;19997;-65
2024/04/14 08:08:05;;;;;;;2.85;0.85;;;16.10;65.20;;;;;;5365663;26;20007;-65
2024/04/14 08:10:30;;;;;;;1.45;0.60;;;16.00;65.40;;;;;;5352872;26;19997;-66
2024/04/14 08:12:56;;;;;;;2.25;0.63;;;15.90;65.40;;;;;;5359301;26;20052;-64
2024/04/14 08:15:22;;;;;;;3.63;0.68;;;16.00;65.60;;;;;;5364949;26;20512;-66
2024/04/14 08:17:47;;;;;;;3.03;0.75;;;16.10;65.30;;;;;;5359376;26;20001;-66
2024/04/14 08:20:13;;;;;;;1.80;0.60;;;16.30;64.80;;;;;;5368590;26;20062;-66
2024/04/14 08:22:38;;;;;;;1.48;0.60;;;16.40;64.40;;;;;;5364104;26;20005;-65
2024/04/14 08:25:04;;;;;;;0.77;0.50;;;16.30;64.20;;;;;;5359517;26;20000;-65
2024/04/14 08:27:30;;;;;;;3.85;0.60;;;16.40;64.10;;;;;;5369586;26;20011;-65
2024/04/14 08:29:56;;;;;;;1.10;0.50;;;16.30;64.00;;;;;;5363230;26;20004;-66
2024/04/14 08:32:21;;;;;;;1.33;0.77;;;16.30;63.90;;;;;;5366419;26;20004;-65
2024/04/14 08:34:47;;;;;;;1.02;0.50;;;16.20;64.00;;;;;;5363956;26;20052;-66
2024/04/14 08:37:12;;;;;;;2.10;0.50;;;16.20;64.00;;;;;;5363441;26;20046;-66
2024/04/14 08:39:38;;;;;;;0.85;0.50;;;16.40;63.50;;;;;;5357425;26;20011;-65
2024/04/14 08:42:07;;;;;;;1.73;0.52;;;16.60;63.00;;;;;;5356249;26;20013;-66
2024/04/14 08:44:35;;;;;;;2.50;0.60;;;16.80;62.70;;;;;;5367683;26;20008;-65
2024/04/14 08:47:03;;;;;;;1.60;0.60;;;16.80;62.40;;;;;;5370394;26;20006;-66
2024/04/14 08:49:30;;;;;;;1.50;0.60;;;16.70;62.30;;;;;;5357668;26;20004;-65
2024/04/14 08:51:57;;;;;;;0.57;0.40;;;16.80;62.20;;;;;;5349361;26;20440;-66
2024/04/14 08:54:23;;;;;;;1.08;0.55;;;16.90;61.90;;;;;;5364456;26;20000;-63
2024/04/14 08:56:54;;;;;;;2.25;0.70;;;16.90;61.50;;;;;;5361985;26;20012;-65
2024/04/14 08:59:21;;;;;;;3.53;1.00;;;16.90;61.30;;;;;;5365171;26;20004;-66
2024/04/14 09:01:47;;;;;;;1.42;0.55;;;16.80;61.00;;;;;;5369967;26;20078;-65
2024/04/14 09:04:14;;;;;;;2.35;0.60;;;16.70;61.10;;;;;;5372180;26;20474;-66
2024/04/14 09:06:42;;;;;;;1.95;0.60;;;16.60;61.00;;;;;;5354683;26;20540;-66
2024/04/14 09:09:08;;;;;;;1.58;0.52;;;16.60;61.30;;;;;;5357232;26;20015;-66
2024/04/14 09:11:34;;;;;;;2.88;0.80;;;16.60;61.30;;;;;;5369578;26;20025;-65
2024/04/14 09:14:00;;;;;;;3.10;0.90;;;16.60;60.80;;;;;;5359484;26;22001;-65
2024/04/14 09:16:26;;;;;;;3.58;0.88;;;16.50;60.90;;;;;;5369440;26;20000;-65
2024/04/14 09:18:55;;;;;;;2.33;0.95;;;16.50;60.80;;;;;;5371615;26;20061;-66
2024/04/14 09:21:21;;;;;;;2.38;0.77;;;16.50;60.30;;;;;;5365263;26;19992;-66
2024/04/14 09:23:48;;;;;;;1.45;0.40;;;16.50;60.30;;;;;;5355673;26;20074;-66
2024/04/14 09:26:14;;;;;;;2.60;0.60;;;16.70;60.40;;;;;;5360206;26;20008;-65
2024/04/14 09:28:39;;;;;;;2.25;0.60;;;16.70;59.80;;;;;;5366633;26;19997;-65
2024/04/14 09:31:06;;;;;;;1.10;0.52;;;16.70;59.60;;;;;;5366721;26;20076;-66
2024/04/14 09:33:32;;;;;;;2.15;0.60;;;16.60;59.50;;;;;;5354877;26;20362;-64
2024/04/14 09:35:57;;;;;;;1.33;0.50;;;16.70;59.60;;;;;;5351848;26;20001;-66
2024/04/14 09:38:23;;;;;;;2.55;0.68;;;16.90;59.50;;;;;;5373109;26;20000;-65
2024/04/14 09:40:49;;;;;;;1.45;0.50;;;16.90;59.30;;;;;;5355030;26;20015;-66
2024/04/14 09:43:18;;;;;;;2.75;0.63;;;16.90;59.40;;;;;;5362291;26;19997;-66
2024/04/14 09:45:45;;;;;;;1.42;0.60;;;16.90;59.10;;;;;;5343688;26;20015;-66
2024/04/14 09:48:13;;;;;;;0.90;0.50;;;16.90;59.10;;;;;;5362736;26;20000;-66
2024/04/14 09:50:42;;;;;;;1.75;0.60;;;17.00;59.30;;;;;;5359493;26;20008;-66
2024/04/14 09:53:09;;;;;;;1.58;0.50;;;17.00;59.10;;;;;;5363311;26;20000;-65
2024/04/14 09:55:34;;;;;;;1.33;0.60;;;16.90;59.10;;;;;;5361274;26;20005;-66
2024/04/14 09:58:00;;;;;;;1.35;0.60;;;16.80;59.30;;;;;;5365120;26;20039;-65
2024/04/14 10:00:26;;;;;;;2.95;0.60;;;16.80;59.30;;;;;;5356233;26;20396;-66
2024/04/14 10:03:03;;;;;;;2.05;0.57;;;16.80;59.30;;;;;;5353492;26;20000;-66
2024/04/14 10:05:30;;;;;;;1.75;0.52;;;16.80;59.30;;;;;;5348844;26;20029;-66
2024/04/14 10:07:55;;;;;;;3.35;0.90;;;16.80;59.40;;;;;;5357105;26;20011;-67
2024/04/14 10:10:24;;;;;;;1.40;0.40;;;16.90;59.30;;;;;;5362933;26;19999;-65
2024/04/14 10:12:51;;;;;;;1.88;0.60;;;16.80;59.10;;;;;;5356861;26;20294;-65
2024/04/14 10:15:19;;;;;;;2.95;0.63;;;16.90;59.20;;;;;;5360026;26;20016;-63
2024/04/14 10:17:46;;;;;;;1.83;0.73;;;16.80;59.30;;;;;;5370067;26;20004;-66
2024/04/14 10:20:15;;;;;;;2.25;0.55;;;16.80;59.30;;;;;;5344462;26;19997;-65
2024/04/14 10:22:42;;;;;;;2.83;0.65;;;16.90;59.40;;;;;;5352236;26;20001;-65
2024/04/14 10:25:22;;;;;;;1.27;0.50;;;16.90;59.40;;;;;;5346773;26;19996;-66
2024/04/14 10:27:48;;;;;;;4.72;0.70;;;17.00;59.30;;;;;;5358996;26;20017;-65
2024/04/14 10:30:21;;;;;;;2.58;0.50;;;17.20;59.20;;;;;;5359564;26;20402;-65
2024/04/14 10:32:47;;;;;;;2.28;0.63;;;17.30;59.70;;;;;;5353076;26;20004;-64
2024/04/14 10:35:16;;;;;;;1.60;0.73;;;17.30;58.90;;;;;;5366293;26;20462;-64
2024/04/14 10:37:52;;;;;;;1.17;0.57;;;17.10;58.40;;;;;;5347790;26;19997;-66
2024/04/14 10:40:18;;;;;;;1.15;0.50;;;17.10;58.30;;;;;;5354030;26;20012;-63
2024/04/14 10:42:46;;;;;;;2.00;0.60;;;17.10;58.90;;;;;;5369111;26;20723;-64
2024/04/14 10:45:11;;;;;;;2.85;0.60;;;17.10;58.00;;;;;;5352765;26;20011;-64
2024/04/14 10:47:37;;;;;;;1.33;0.45;;;17.10;56.70;;;;;;5350088;26;19997;-66
2024/04/14 10:50:03;;;;;;;1.33;0.60;;;17.10;56.90;;;;;;5351000;26;20073;-64
2024/04/14 10:52:29;;;;;;;1.17;0.63;;;17.10;56.70;;;;;;5346334;26;20045;-65
2024/04/14 10:54:54;;;;;;;0.70;0.50;;;17.20;56.80;;;;;;5356532;26;20018;-66
2024/04/14 10:57:20;;;;;;;1.98;0.43;;;17.20;56.00;;;;;;5350621;26;20398;-64
2024/04/14 10:59:45;;;;;;;1.00;0.60;;;17.30;55.60;;;;;;5366769;26;20008;-65
2024/04/14 11:02:11;;;;;;;0.70;0.38;;;17.40;55.20;;;;;;5359354;26;20455;-65
2024/04/14 11:04:38;;;;;;;1.20;0.60;;;17.50;54.60;;;;;;5365555;26;20069;-65
2024/04/14 11:07:04;;;;;;;2.63;0.73;;;17.60;54.10;;;;;;5366436;26;20051;-65
2024/04/14 11:09:31;;;;;;;2.65;0.50;;;17.70;53.50;;;;;;5356839;26;19996;-65
2024/04/14 11:11:58;;;;;;;1.35;0.50;;;17.80;53.00;;;;;;5356383;26;19997;-64
2024/04/14 11:14:25;;;;;;;0.70;0.52;;;17.90;52.40;;;;;;5351666;26;20082;-67
2024/04/14 11:16:50;;;;;;;2.95;0.80;;;17.70;51.20;;;;;;5361075;26;20001;-65
2024/04/14 11:19:16;;;;;;;2.03;0.68;;;17.70;51.50;;;;;;5361565;26;20726;-66
2024/04/14 11:21:41;;;;;;;0.77;0.35;;;17.80;51.40;;;;;;5365802;26;20464;-65
2024/04/14 11:24:11;;;;;;;1.63;0.50;;;18.00;51.60;;;;;;5355760;26;20004;-65
2024/04/14 11:26:39;;;;;;;0.95;0.50;;;18.10;51.20;;;;;;5349194;26;20062;-66
2024/04/14 11:29:05;;;;;;;1.42;0.60;;;18.20;51.50;;;;;;5350965;26;20012;-66
2024/04/14 11:31:31;;;;;;;1.10;0.50;;;18.20;50.80;;;;;;5362873;26;22144;-63
2024/04/14 11:33:58;;;;;;;2.38;0.60;;;18.20;50.70;;;;;;5363887;26;20012;-65
2024/04/14 11:36:31;;;;;;;1.90;0.52;;;18.20;50.30;;;;;;5353968;26;20004;-65
2024/04/14 11:38:57;;;;;;;1.27;0.50;;;18.10;49.80;;;;;;5365110;26;20524;-65
2024/04/14 11:41:23;;;;;;;0.77;0.40;;;18.20;49.40;;;;;;5364125;26;20013;-66
2024/04/14 11:43:48;;;;;;;0.80;0.50;;;18.20;50.10;;;;;;5369647;26;20000;-65
2024/04/14 11:46:14;;;;;;;1.08;0.63;;;18.40;50.30;;;;;;5353440;26;20001;-65
2024/04/14 11:48:40;;;;;;;0.63;0.45;;;18.50;50.10;;;;;;5358553;26;20081;-65
2024/04/14 11:51:05;;;;;;;1.73;0.70;;;18.70;50.40;;;;;;5363772;26;20293;-66
2024/04/14 11:53:31;;;;;;;1.52;0.52;;;18.50;48.10;;;;;;5360399;26;20359;-66
2024/04/14 11:55:57;;;;;;;1.27;0.57;;;18.60;48.80;;;;;;5367911;26;20801;-66
2024/04/14 11:58:25;;;;;;;1.05;0.38;;;18.70;49.20;;;;;;5360984;26;20084;-65
2024/04/14 12:00:51;;;;;;;2.20;0.45;;;18.80;49.40;;;;;;5349905;26;20428;-66
2024/04/14 12:03:17;;;;;;;0.95;0.40;;;18.90;49.10;;;;;;5354787;26;20020;-65
2024/04/14 12:05:42;;;;;;;0.82;0.50;;;19.10;49.40;;;;;;5370721;26;20005;-65
2024/04/14 12:08:08;;;;;;;2.28;0.70;;;19.20;49.50;;;;;;5363279;26;20370;-66
2024/04/14 12:10:34;;;;;;;1.20;0.50;;;19.40;49.30;;;;;;5373728;26;20004;-65
2024/04/14 12:12:59;;;;;;;1.73;0.60;;;19.50;48.90;;;;;;5367628;26;20000;-65
2024/04/14 12:15:25;;;;;;;1.50;0.50;;;19.50;48.70;;;;;;5365429;26;20010;-63
2024/04/14 12:17:50;;;;;;;1.85;0.60;;;19.40;48.60;;;;;;5353162;26;20106;-64
2024/04/14 12:20:16;;;;;;;1.15;0.40;;;19.30;48.90;;;;;;5353737;26;20000;-65
2024/04/14 12:22:41;;;;;;;2.97;0.70;;;19.30;49.00;;;;;;5358195;26;20007;-65
2024/04/14 12:25:07;;;;;;;1.15;0.60;;;19.30;48.80;;;;;;5356633;26;20016;-65
2024/04/14 12:27:33;;;;;;;1.33;0.52;;;19.30;49.00;;;;;;5356135;26;20069;-64
2024/04/14 12:29:58;;;;;;;1.25;0.50;;;19.30;49.00;;;;;;5368862;26;20066;-64
2024/04/14 12:32:24;;;;;;;3.45;0.60;;;19.30;49.20;;;;;;5369593;26;20018;-65
2024/04/14 12:34:50;;;;;;;0.80;0.52;;;19.20;49.10;;;;;;5353653;26;20336;-65
2024/04/14 12:37:16;;;;;;;2.63;0.70;;;19.10;49.20;;;;;;5345136;26;20042;-66
2024/04/14 12:39:41;;;;;;;0.93;0.43;;;19.00;49.10;;;;;;5358750;26;20005;-64
2024/04/14 12:42:07;;;;;;;1.17;0.80;;;18.90;49.20;;;;;;5358103;26;20015;-66
2024/04/14 12:44:33;;;;;;;2.00;0.40;;;19.00;48.70;;;;;;5362042;26;20000;-65